Time;durP1;ratioP1;P1;durP2;ratioP2;P2;SDS_P1;SDS_P2;PMS_P1;PMS_P2;Temp;Humidity;BMP_temperature;BMP_pressure;BME280_temperature;BME280_humidity;BME280_pressure;Samples;Min_cycle;Max_cycle;Signal;HPM_P1;HPM_P2
2023/09/21 00:00:16;;;;;;;5.00;2.75;;;;;;;17.55;91.72;99225.94;5086092;28;20028;-63
2023/09/21 00:02:49;;;;;;;6.90;2.97;;;;;;;17.49;92.00;99209.69;5086196;28;20448;-63
2023/09/21 00:05:17;;;;;;;6.38;2.83;;;;;;;17.58;91.89;99231.03;5067974;28;20021;-64
2023/09/21 00:07:43;;;;;;;3.70;2.35;;;;;;;17.59;92.69;99234.47;5086103;28;20024;-63
2023/09/21 00:10:09;;;;;;;4.85;2.38;;;;;;;17.63;92.30;99229.91;5085935;28;20020;-64
2023/09/21 00:12:35;;;;;;;7.47;3.13;;;;;;;17.68;91.87;99226.06;5086013;28;20059;-64
2023/09/21 00:15:04;;;;;;;4.82;2.55;;;;;;;17.66;91.90;99221.84;5085917;28;20024;-64
2023/09/21 00:17:32;;;;;;;3.00;2.55;;;;;;;17.68;91.85;99220.81;5067994;28;20032;-64
2023/09/21 00:19:58;;;;;;;4.18;2.50;;;;;;;17.66;92.16;99216.59;5085524;28;20036;-63
2023/09/21 00:22:25;;;;;;;2.33;1.90;;;;;;;17.74;91.63;99213.53;5085707;28;20032;-64
2023/09/21 00:24:52;;;;;;;3.53;2.58;;;;;;;17.70;92.23;99212.84;5085896;28;20021;-64
2023/09/21 00:27:17;;;;;;;3.50;2.58;;;;;;;17.68;92.77;99204.25;5067782;28;20019;-63
2023/09/21 00:29:43;;;;;;;3.35;2.00;;;;;;;17.69;92.87;99213.81;5085450;28;20125;-64
2023/09/21 00:32:08;;;;;;;3.65;1.80;;;;;;;17.70;92.51;99213.72;5067789;28;20016;-64
2023/09/21 00:34:35;;;;;;;4.70;2.10;;;;;;;17.72;92.24;99218.88;5085695;28;20039;-64
2023/09/21 00:37:00;;;;;;;6.22;2.25;;;;;;;17.64;92.93;99216.69;5085445;28;20039;-64
2023/09/21 00:39:26;;;;;;;5.50;2.38;;;;;;;17.66;93.39;99211.34;5085283;28;20024;-64
2023/09/21 00:41:51;;;;;;;2.70;1.95;;;;;;;17.68;93.55;99223.44;5067143;28;20020;-64
2023/09/21 00:44:18;;;;;;;4.53;2.38;;;;;;;17.70;94.05;99220.72;5085426;28;20199;-63
2023/09/21 00:46:44;;;;;;;5.75;1.88;;;;;;;17.71;94.38;99215.44;5085389;28;20452;-64
2023/09/21 00:49:10;;;;;;;3.88;1.85;;;;;;;17.65;93.85;99207.06;5085258;28;20074;-65
2023/09/21 00:51:36;;;;;;;3.50;1.98;;;;;;;17.69;94.27;99200.69;5085362;28;20031;-64
2023/09/21 00:54:09;;;;;;;2.80;2.60;;;;;;;17.64;94.04;99206.19;5085347;28;20024;-64
2023/09/21 00:56:38;;;;;;;6.30;2.50;;;;;;;17.68;93.96;99196.38;5085125;28;20052;-64
2023/09/21 00:59:05;;;;;;;1.73;1.63;;;;;;;17.71;92.77;99189.19;5085384;28;20047;-64
2023/09/21 01:01:31;;;;;;;9.85;2.30;;;;;;;17.69;92.94;99187.56;5085033;28;20032;-64
2023/09/21 01:03:59;;;;;;;8.15;1.98;;;;;;;17.65;92.65;99180.81;5085399;28;20028;-64
2023/09/21 01:06:24;;;;;;;3.67;1.70;;;;;;;17.67;92.27;99189.41;5085132;28;20040;-63
2023/09/21 01:08:50;;;;;;;3.03;1.42;;;;;;;17.63;91.98;99182.66;5066947;28;20079;-64
2023/09/21 01:11:16;;;;;;;8.65;2.65;;;;;;;17.58;92.71;99183.78;5084953;28;20035;-63
2023/09/21 01:13:41;;;;;;;3.95;1.77;;;;;;;17.61;92.20;99187.16;5085349;28;20024;-64
2023/09/21 01:16:17;;;;;;;3.80;2.58;;;;;;;17.60;92.23;99186.31;5084750;28;20025;-64
2023/09/21 01:18:42;;;;;;;4.72;2.63;;;;;;;17.61;91.88;99174.03;5085054;28;20024;-63
2023/09/21 01:21:13;;;;;;;2.95;2.13;;;;;;;17.59;92.01;99176.75;5084773;28;20048;-63
2023/09/21 01:23:53;;;;;;;8.02;2.20;;;;;;;17.59;91.70;99167.09;5066814;28;20051;-64
2023/09/21 01:26:19;;;;;;;3.65;2.33;;;;;;;17.57;91.70;99179.44;5084944;28;20055;-64
2023/09/21 01:28:47;;;;;;;3.88;1.88;;;;;;;17.55;91.66;99168.22;5066790;28;20053;-64
2023/09/21 01:31:13;;;;;;;3.55;2.45;;;;;;;17.55;92.45;99173.47;5084886;28;20032;-64
2023/09/21 01:33:39;;;;;;;1.90;1.27;;;;;;;17.51;92.29;99156.19;5084998;28;20025;-62
2023/09/21 01:36:08;;;;;;;1.73;1.40;;;;;;;17.55;92.05;99162.13;5084696;28;20217;-64
2023/09/21 01:38:37;;;;;;;2.17;1.58;;;;;;;17.53;92.15;99174.47;5084959;28;20020;-63
2023/09/21 01:41:03;;;;;;;6.60;1.92;;;;;;;17.59;91.63;99167.09;5084739;28;20032;-62
2023/09/21 01:43:28;;;;;;;3.10;2.08;;;;;;;17.64;90.82;99150.22;5084874;28;20028;-63
2023/09/21 01:45:54;;;;;;;3.08;1.92;;;;;;;17.50;92.07;99154.50;5084412;28;20016;-64
2023/09/21 01:48:20;;;;;;;2.17;1.05;;;;;;;17.52;91.93;99157.91;5084879;28;20103;-64
2023/09/21 01:50:50;;;;;;;9.15;2.67;;;;;;;17.52;91.72;99155.28;5084532;28;20032;-64
2023/09/21 01:53:20;;;;;;;2.00;1.65;;;;;;;17.52;91.18;99150.03;5084832;28;20020;-64
2023/09/21 01:55:47;;;;;;;2.25;1.35;;;;;;;17.50;90.89;99149.25;5084457;28;20032;-64
2023/09/21 01:58:14;;;;;;;3.95;1.90;;;;;;;17.45;90.62;99136.41;5084830;28;20078;-64
2023/09/21 02:00:48;;;;;;;2.28;1.13;;;;;;;17.38;91.08;99134.25;5066518;28;20025;-64
2023/09/21 02:03:17;;;;;;;3.15;1.45;;;;;;;17.32;90.77;99125.78;5084626;28;20437;-64
2023/09/21 02:05:43;;;;;;;2.08;1.52;;;;;;;17.38;90.31;99129.81;5084690;28;20100;-64
2023/09/21 02:08:11;;;;;;;3.63;2.40;;;;;;;17.28;90.76;99139.16;5084622;28;20154;-64
2023/09/21 02:10:41;;;;;;;4.82;2.35;;;;;;;17.20;91.45;99134.34;5084427;28;20108;-64
2023/09/21 02:13:07;;;;;;;6.60;2.60;;;;;;;17.17;91.99;99127.47;5084354;28;20066;-63
2023/09/21 02:15:37;;;;;;;4.63;1.73;;;;;;;17.13;92.15;99135.63;5084110;28;20025;-64
2023/09/21 02:18:04;;;;;;;2.90;1.95;;;;;;;17.17;91.91;99137.16;5085021;28;20039;-62
2023/09/21 02:20:30;;;;;;;5.22;2.20;;;;;;;17.09;92.92;99141.03;5087894;28;20048;-63
2023/09/21 02:22:58;;;;;;;5.05;2.60;;;;;;;17.15;92.99;99142.47;5088253;28;20016;-63
2023/09/21 02:25:25;;;;;;;4.78;2.08;;;;;;;17.17;92.80;99132.72;5088183;28;20020;-63
2023/09/21 02:27:51;;;;;;;2.58;1.42;;;;;;;17.23;92.21;99128.94;5088202;28;20076;-63
2023/09/21 02:30:23;;;;;;;4.90;1.90;;;;;;;17.23;92.22;99134.19;5087609;28;20054;-63
2023/09/21 02:32:51;;;;;;;2.35;1.65;;;;;;;17.24;92.63;99137.66;5054834;28;20024;-64
2023/09/21 02:35:22;;;;;;;4.50;1.75;;;;;;;17.19;93.03;99140.50;5069668;28;20025;-63
2023/09/21 02:37:50;;;;;;;10.02;1.40;;;;;;;17.20;93.19;99134.34;5087847;28;20040;-62
2023/09/21 02:40:19;;;;;;;2.63;1.60;;;;;;;17.22;93.01;99129.88;5087694;28;20024;-65
2023/09/21 02:42:49;;;;;;;6.43;2.28;;;;;;;17.20;93.26;99126.47;5088016;28;20031;-64
2023/09/21 02:45:15;;;;;;;6.10;1.98;;;;;;;17.22;93.62;99125.44;5069216;28;20048;-63
2023/09/21 02:47:42;;;;;;;3.33;1.75;;;;;;;17.25;93.41;99127.06;5087689;28;20031;-64
2023/09/21 02:50:21;;;;;;;2.78;2.28;;;;;;;17.23;93.60;99131.56;5087635;28;20017;-63
2023/09/21 02:52:51;;;;;;;3.75;2.10;;;;;;;17.23;93.95;99126.31;5087583;28;20028;-63
2023/09/21 02:55:16;;;;;;;2.28;1.75;;;;;;;17.25;94.22;99113.97;5087486;28;20028;-63
2023/09/21 02:57:48;;;;;;;3.22;1.40;;;;;;;17.23;93.79;99113.19;5087453;28;20058;-63
2023/09/21 03:00:21;;;;;;;4.45;2.33;;;;;;;17.29;93.24;99104.97;5087226;28;20473;-64
2023/09/21 03:02:49;;;;;;;2.47;1.67;;;;;;;17.31;92.92;99110.13;5087275;28;20033;-64
2023/09/21 03:05:16;;;;;;;9.55;2.30;;;;;;;17.26;93.09;99113.03;5087347;28;20055;-64
2023/09/21 03:07:43;;;;;;;3.15;1.77;;;;;;;17.27;93.07;99104.22;5087213;28;20021;-63
2023/09/21 03:10:10;;;;;;;3.85;2.22;;;;;;;17.28;92.68;99095.44;5087186;28;20020;-64
2023/09/21 03:12:39;;;;;;;1.75;1.40;;;;;;;17.27;92.71;99093.72;5087195;28;20097;-65
2023/09/21 03:15:15;;;;;;;3.65;1.90;;;;;;;17.23;93.11;99105.31;5087129;28;20021;-64
2023/09/21 03:17:45;;;;;;;1.70;1.20;;;;;;;17.30;92.42;99103.22;5086985;28;20477;-64
2023/09/21 03:20:12;;;;;;;4.75;1.88;;;;;;;17.24;92.90;99093.91;5086833;28;20052;-63
2023/09/21 03:22:39;;;;;;;1.38;1.27;;;;;;;17.21;92.64;99087.06;5087061;28;20024;-63
2023/09/21 03:25:16;;;;;;;3.58;2.42;;;;;;;17.21;92.53;99088.81;5086938;28;20024;-63
2023/09/21 03:27:41;;;;;;;2.50;1.55;;;;;;;17.17;92.89;99085.53;5087010;28;20103;-63
2023/09/21 03:30:12;;;;;;;9.10;2.33;;;;;;;17.17;93.15;99088.16;5085648;28;20109;-64
2023/09/21 03:32:40;;;;;;;1.48;1.33;;;;;;;17.11;92.86;99079.81;5086844;28;20027;-64
2023/09/21 03:35:06;;;;;;;5.45;1.73;;;;;;;17.11;92.86;99085.06;5086601;28;20094;-62
2023/09/21 03:37:32;;;;;;;2.33;1.85;;;;;;;17.15;92.07;99086.56;5086810;28;20025;-63
2023/09/21 03:39:57;;;;;;;2.03;1.38;;;;;;;17.08;92.35;99079.03;5086572;28;20021;-63
2023/09/21 03:42:23;;;;;;;3.45;2.20;;;;;;;17.04;91.66;99077.50;5086651;28;20074;-62
2023/09/21 03:44:48;;;;;;;8.88;2.55;;;;;;;17.06;91.07;99077.41;5086393;28;20051;-63
2023/09/21 03:47:17;;;;;;;5.05;2.42;;;;;;;16.92;91.90;99079.03;5086612;28;20093;-63
2023/09/21 03:49:44;;;;;;;2.33;1.60;;;;;;;16.87;92.28;99075.00;5086420;28;20055;-64
2023/09/21 03:52:10;;;;;;;8.70;2.47;;;;;;;16.86;92.08;99092.50;5086392;28;20027;-62
2023/09/21 03:54:36;;;;;;;2.80;1.85;;;;;;;16.79;92.08;99089.34;5086370;28;20103;-63
2023/09/21 03:57:01;;;;;;;2.22;1.10;;;;;;;16.76;92.57;99096.56;5086499;28;20035;-64
2023/09/21 03:59:27;;;;;;;4.10;1.83;;;;;;;16.71;92.48;99092.41;5086247;28;20417;-63
2023/09/21 04:01:52;;;;;;;2.83;1.95;;;;;;;16.69;92.60;99104.75;5086057;28;20028;-63
2023/09/21 04:04:18;;;;;;;3.90;1.80;;;;;;;16.69;92.53;99096.06;5086072;28;20023;-68
2023/09/21 04:06:44;;;;;;;4.47;1.63;;;;;;;16.67;92.70;99092.66;5086069;28;20103;-65
2023/09/21 04:09:09;;;;;;;2.65;2.05;;;;;;;16.65;92.54;99084.88;5085911;28;20070;-65
2023/09/21 04:11:34;;;;;;;4.63;2.47;;;;;;;16.68;91.91;99083.88;5085910;28;20024;-64
2023/09/21 04:14:01;;;;;;;5.55;1.77;;;;;;;16.65;92.41;99084.88;5085912;28;20087;-65
2023/09/21 04:16:28;;;;;;;3.13;1.70;;;;;;;16.60;92.10;99093.00;5067644;28;20016;-62
2023/09/21 04:18:54;;;;;;;1.42;1.27;;;;;;;16.59;92.21;99075.59;5085593;28;20021;-63
2023/09/21 04:21:20;;;;;;;4.10;1.60;;;;;;;16.66;91.48;99075.25;5085936;28;20052;-62
2023/09/21 04:23:46;;;;;;;2.83;1.40;;;;;;;16.65;91.81;99076.16;5085844;28;20032;-63
2023/09/21 04:26:12;;;;;;;3.38;1.63;;;;;;;16.60;91.74;99066.81;5085724;28;20021;-64
2023/09/21 04:28:37;;;;;;;6.10;2.05;;;;;;;16.66;91.34;99076.09;5085833;28;20029;-65
2023/09/21 04:31:02;;;;;;;14.85;2.65;;;;;;;16.62;91.19;99061.47;5085209;28;20264;-61
2023/09/21 04:33:28;;;;;;;1.75;1.08;;;;;;;16.58;91.40;99057.34;5084077;28;20024;-62
2023/09/21 04:35:53;;;;;;;3.83;1.67;;;;;;;16.60;91.58;99066.81;5085097;28;20025;-63
2023/09/21 04:38:18;;;;;;;3.67;1.92;;;;;;;16.62;91.28;99065.84;5085031;28;20104;-63
2023/09/21 04:40:46;;;;;;;5.20;2.05;;;;;;;16.52;92.19;99069.00;5084377;28;20029;-63
2023/09/21 04:43:13;;;;;;;3.60;1.33;;;;;;;16.54;92.17;99064.53;5083549;28;20021;-62
2023/09/21 04:45:38;;;;;;;4.20;1.10;;;;;;;16.54;92.28;99061.91;5085093;28;20103;-62
2023/09/21 04:48:04;;;;;;;2.45;1.67;;;;;;;16.50;92.40;99055.16;5067094;28;20035;-62
2023/09/21 04:50:29;;;;;;;2.28;1.38;;;;;;;16.57;91.84;99053.00;5085293;28;20057;-63
2023/09/21 04:52:55;;;;;;;3.22;1.20;;;;;;;16.56;91.78;99053.97;5083998;28;20157;-62
2023/09/21 04:55:21;;;;;;;1.10;0.82;;;;;;;16.53;91.43;99039.28;5085105;28;20028;-62
2023/09/21 04:57:46;;;;;;;3.38;1.38;;;;;;;16.62;91.71;99056.25;5085114;28;20020;-62
2023/09/21 05:00:14;;;;;;;2.45;1.88;;;;;;;16.67;91.96;99048.13;5084981;28;20476;-62
2023/09/21 05:02:40;;;;;;;4.07;2.55;;;;;;;16.72;91.53;99046.09;5085252;28;20023;-63
2023/09/21 05:05:06;;;;;;;1.70;1.52;;;;;;;16.82;89.92;99033.31;5085387;28;20396;-61
2023/09/21 05:07:31;;;;;;;1.65;1.27;;;;;;;16.83;89.91;99029.75;5085187;28;20166;-63
2023/09/21 05:09:57;;;;;;;1.10;0.75;;;;;;;16.88;89.53;99032.13;5085126;28;20031;-63
2023/09/21 05:12:22;;;;;;;1.52;1.20;;;;;;;17.06;87.37;99036.28;5085368;28;20103;-63
2023/09/21 05:14:48;;;;;;;1.95;1.13;;;;;;;16.99;88.08;99034.97;5066987;28;20047;-62
2023/09/21 05:17:17;;;;;;;2.80;1.63;;;;;;;16.97;87.88;99039.44;5085197;28;20031;-62
2023/09/21 05:19:43;;;;;;;7.93;1.83;;;;;;;16.95;88.36;99036.91;5084674;28;20052;-62
2023/09/21 05:22:10;;;;;;;2.15;1.60;;;;;;;17.04;88.07;99032.09;5085069;28;20032;-67
2023/09/21 05:24:39;;;;;;;1.50;1.10;;;;;;;17.01;88.48;99038.38;5084946;28;20031;-66
2023/09/21 05:27:06;;;;;;;2.47;1.35;;;;;;;16.99;88.81;99027.09;5083432;28;20429;-66
2023/09/21 05:29:31;;;;;;;1.92;1.42;;;;;;;17.09;87.88;99024.84;5084839;28;20016;-65
2023/09/21 05:31:57;;;;;;;4.35;1.70;;;;;;;17.18;87.51;99033.94;5084809;28;20031;-65
2023/09/21 05:34:24;;;;;;;4.85;1.10;;;;;;;17.23;86.95;99029.28;5085213;28;20025;-66
2023/09/21 05:36:54;;;;;;;2.55;1.10;;;;;;;17.24;87.00;99032.75;5084830;28;20028;-66
2023/09/21 05:39:19;;;;;;;2.05;0.60;;;;;;;17.47;84.27;99018.28;5084828;28;20012;-65
2023/09/21 05:41:48;;;;;;;2.95;1.63;;;;;;;17.44;84.66;99042.06;5084933;28;20021;-66
2023/09/21 05:44:13;;;;;;;1.15;0.82;;;;;;;17.52;83.93;99031.09;5085017;28;20597;-65
2023/09/21 05:46:39;;;;;;;1.27;1.17;;;;;;;17.46;85.02;99029.69;5084803;28;20501;-65
2023/09/21 05:49:07;;;;;;;1.67;1.08;;;;;;;17.75;82.39;99034.97;5084761;28;20031;-65
2023/09/21 05:51:33;;;;;;;2.95;1.63;;;;;;;17.55;82.78;99023.91;5084397;28;20058;-65
2023/09/21 05:53:58;;;;;;;5.38;1.88;;;;;;;17.39;83.38;99016.09;5086838;28;20024;-64
2023/09/21 05:56:24;;;;;;;1.50;1.27;;;;;;;17.42;83.33;99030.81;5088413;28;20027;-64
2023/09/21 05:58:50;;;;;;;3.22;0.75;;;;;;;17.65;81.89;99018.09;5088451;28;20035;-65
2023/09/21 06:01:15;;;;;;;2.00;0.85;;;;;;;17.51;82.03;99013.69;5088551;28;20024;-64
2023/09/21 06:03:41;;;;;;;2.13;1.20;;;;;;;17.32;83.18;99026.09;5088998;28;20040;-63
2023/09/21 06:06:07;;;;;;;1.83;1.40;;;;;;;17.43;82.20;99024.63;5088722;28;20447;-65
2023/09/21 06:08:32;;;;;;;1.88;1.33;;;;;;;17.32;83.48;99028.72;5070557;28;20042;-64
2023/09/21 06:10:57;;;;;;;3.95;0.68;;;;;;;17.34;83.61;99011.13;5088464;28;20028;-66
2023/09/21 06:13:25;;;;;;;3.50;1.67;;;;;;;17.56;82.85;99029.97;5088597;28;20062;-65
2023/09/21 06:15:50;;;;;;;1.00;0.88;;;;;;;17.71;82.76;99030.84;5088234;28;20020;-65
2023/09/21 06:18:17;;;;;;;1.42;0.90;;;;;;;17.89;81.16;99022.78;5070472;28;20372;-65
2023/09/21 06:20:45;;;;;;;1.70;1.08;;;;;;;18.05;80.96;99023.50;5087980;28;20047;-66
2023/09/21 06:23:11;;;;;;;0.63;0.50;;;;;;;18.19;81.38;99030.59;5088388;28;20016;-65
2023/09/21 06:25:37;;;;;;;3.40;2.08;;;;;;;18.42;78.94;99017.78;5086924;28;20380;-65
2023/09/21 06:28:03;;;;;;;0.88;0.80;;;;;;;18.53;78.64;99032.84;5088196;28;20047;-65
2023/09/21 06:30:29;;;;;;;1.55;1.05;;;;;;;18.60;80.13;99027.19;5087783;28;20036;-64
2023/09/21 06:32:55;;;;;;;1.48;1.05;;;;;;;18.88;78.21;99030.69;5088146;28;20029;-65
2023/09/21 06:35:27;;;;;;;1.13;1.02;;;;;;;19.01;76.79;99018.41;5087918;28;20048;-66
2023/09/21 06:37:54;;;;;;;2.97;2.28;;;;;;;19.25;75.86;99023.00;5087921;28;20021;-66
2023/09/21 06:40:25;;;;;;;3.72;1.75;;;;;;;19.25;76.13;99015.09;5069911;28;20024;-65
2023/09/21 06:42:51;;;;;;;3.33;1.25;;;;;;;19.50;76.45;99013.47;5088008;28;20025;-65
2023/09/21 06:45:17;;;;;;;2.13;1.10;;;;;;;20.06;75.87;99024.59;5069623;28;20039;-65
2023/09/21 06:47:42;;;;;;;1.80;0.90;;;;;;;20.42;72.98;99011.53;5087790;28;20021;-65
2023/09/21 06:50:10;;;;;;;1.10;0.82;;;;;;;20.44;72.58;99020.19;5087532;28;20024;-66
2023/09/21 06:52:36;;;;;;;4.65;1.13;;;;;;;20.48;71.40;99010.28;5087458;28;20020;-66
2023/09/21 06:55:05;;;;;;;1.60;1.38;;;;;;;20.70;69.74;99011.31;5087676;28;20029;-65
2023/09/21 06:57:31;;;;;;;0.77;0.77;;;;;;;20.81;67.54;99004.28;5087335;28;20021;-65
2023/09/21 06:59:57;;;;;;;1.40;1.30;;;;;;;20.66;67.82;99008.91;5087102;28;20024;-65
2023/09/21 07:02:24;;;;;;;2.53;1.38;;;;;;;20.43;69.12;99015.88;5087454;28;20035;-65
2023/09/21 07:04:50;;;;;;;1.73;0.90;;;;;;;20.49;69.87;99014.56;5087339;28;20035;-65
2023/09/21 07:07:15;;;;;;;5.90;1.13;;;;;;;20.88;67.57;99012.59;5087486;28;20028;-65
2023/09/21 07:09:44;;;;;;;0.70;0.68;;;;;;;20.92;67.49;99000.91;5087236;28;20051;-65
2023/09/21 07:12:11;;;;;;;1.15;0.93;;;;;;;20.81;68.05;99016.66;5087108;28;20025;-66
2023/09/21 07:14:36;;;;;;;2.03;0.85;;;;;;;20.87;67.50;99007.44;5087333;28;20029;-65
2023/09/21 07:17:04;;;;;;;2.17;1.25;;;;;;;20.81;67.82;99004.28;5087167;28;20035;-64
2023/09/21 07:19:29;;;;;;;2.75;1.23;;;;;;;21.07;67.14;99000.69;5091873;28;20040;-65
2023/09/21 07:21:55;;;;;;;7.20;1.55;;;;;;;21.48;67.05;99014.38;5107293;28;20049;-66
2023/09/21 07:24:20;;;;;;;1.20;0.73;;;;;;;22.02;66.12;99009.38;5107572;28;20024;-65
2023/09/21 07:26:46;;;;;;;0.93;0.82;;;;;;;22.27;64.31;99012.69;5089081;28;20472;-65
2023/09/21 07:29:14;;;;;;;2.72;1.30;;;;;;;22.56;65.54;99011.28;5107429;28;20084;-65
2023/09/21 07:31:39;;;;;;;0.93;0.80;;;;;;;23.13;62.95;99010.25;5106997;28;20110;-66
2023/09/21 07:34:06;;;;;;;2.83;1.17;;;;;;;23.28;62.50;99013.41;5107151;28;20027;-66
2023/09/21 07:36:34;;;;;;;1.58;0.93;;;;;;;23.22;60.39;99008.63;5107071;28;20080;-65
2023/09/21 07:39:03;;;;;;;1.52;0.82;;;;;;;23.12;59.71;98998.81;5107126;28;20060;-65
2023/09/21 07:41:29;;;;;;;2.15;1.30;;;;;;;22.96;59.79;99020.44;5107042;28;20020;-65
2023/09/21 07:43:54;;;;;;;0.57;0.50;;;;;;;22.84;58.84;98998.50;5107133;28;20028;-65
2023/09/21 07:46:20;;;;;;;0.98;0.93;;;;;;;22.73;59.70;99006.47;5106727;28;20016;-66
2023/09/21 07:48:48;;;;;;;5.60;1.38;;;;;;;22.66;59.04;98998.19;5088454;28;20028;-66
2023/09/21 07:51:13;;;;;;;2.15;1.20;;;;;;;22.49;58.29;98989.78;5106842;28;20031;-65
2023/09/21 07:53:40;;;;;;;3.33;1.05;;;;;;;22.12;59.04;98990.13;5106542;28;20020;-66
2023/09/21 07:56:08;;;;;;;2.72;0.90;;;;;;;21.90;61.35;98989.22;5106800;28;20383;-66
2023/09/21 07:58:33;;;;;;;0.68;0.68;;;;;;;22.11;59.97;98988.47;5106717;28;20048;-66
2023/09/21 08:00:59;;;;;;;5.05;1.83;;;;;;;22.13;60.43;98992.66;5106378;28;20035;-66
2023/09/21 08:03:27;;;;;;;1.33;1.10;;;;;;;22.22;60.49;98993.72;5088442;28;20020;-65
2023/09/21 08:05:53;;;;;;;2.25;1.02;;;;;;;22.31;60.53;99005.34;5106573;28;20020;-65
2023/09/21 08:08:18;;;;;;;2.60;0.85;;;;;;;22.53;59.08;99000.97;5106633;28;20024;-65
2023/09/21 08:10:44;;;;;;;1.85;0.80;;;;;;;22.58;60.02;99003.22;5106182;28;20027;-66
2023/09/21 08:13:11;;;;;;;0.55;0.52;;;;;;;22.97;58.33;99000.94;5106478;28;20027;-65
2023/09/21 08:15:36;;;;;;;2.53;0.80;;;;;;;23.09;57.31;98996.44;5105647;28;20531;-66
2023/09/21 08:18:02;;;;;;;2.92;1.02;;;;;;;23.12;56.20;99008.56;5088043;28;20050;-65
2023/09/21 08:20:28;;;;;;;3.13;0.90;;;;;;;22.94;57.48;98992.44;5087872;28;20048;-65
2023/09/21 08:22:53;;;;;;;1.85;1.15;;;;;;;22.75;56.72;98996.59;5087711;28;20032;-65
2023/09/21 08:25:19;;;;;;;2.72;0.95;;;;;;;22.78;56.09;99004.25;5106377;28;20031;-66
2023/09/21 08:27:45;;;;;;;1.20;1.05;;;;;;;22.49;56.31;99004.84;5106113;28;20027;-66
2023/09/21 08:30:12;;;;;;;1.00;0.60;;;;;;;22.11;57.38;98999.84;5105990;28;20543;-66
2023/09/21 08:32:39;;;;;;;1.45;0.88;;;;;;;21.95;58.04;98996.78;5106299;28;20028;-65
2023/09/21 08:35:05;;;;;;;0.60;0.55;;;;;;;22.00;58.15;98984.84;5106033;28;20028;-65
2023/09/21 08:37:31;;;;;;;1.83;1.08;;;;;;;22.22;57.34;99006.09;5105943;28;20046;-65
2023/09/21 08:39:56;;;;;;;1.65;1.20;;;;;;;22.10;57.36;98994.69;5105844;28;20024;-66
2023/09/21 08:42:22;;;;;;;2.45;1.08;;;;;;;22.03;57.95;99000.47;5106110;28;20032;-65
2023/09/21 08:44:49;;;;;;;2.15;1.08;;;;;;;22.39;57.74;98999.44;5087642;28;20524;-66
2023/09/21 08:47:14;;;;;;;2.13;1.20;;;;;;;22.73;57.19;98998.53;5105810;28;20020;-65
2023/09/21 08:49:45;;;;;;;5.65;0.98;;;;;;;22.92;57.13;98992.56;5105760;28;20089;-64
2023/09/21 08:52:12;;;;;;;2.38;0.65;;;;;;;23.40;55.79;98998.34;5087571;28;20024;-67
2023/09/21 08:54:40;;;;;;;2.42;0.90;;;;;;;23.97;54.74;98997.88;5105749;28;20020;-66
2023/09/21 08:57:09;;;;;;;1.38;0.93;;;;;;;24.66;53.44;98994.56;5087106;28;20024;-66
2023/09/21 08:59:40;;;;;;;1.00;0.68;;;;;;;25.05;50.53;98979.63;5087294;28;20107;-66
2023/09/21 09:02:10;;;;;;;2.25;0.52;;;;;;;24.78;49.86;98994.41;5105729;28;20024;-66
2023/09/21 09:04:36;;;;;;;1.60;0.75;;;;;;;24.24;50.42;98985.84;5087306;28;20024;-66
2023/09/21 09:07:02;;;;;;;0.93;0.70;;;;;;;24.25;51.31;98995.47;5105470;28;20024;-66
2023/09/21 09:09:28;;;;;;;1.25;0.98;;;;;;;24.02;51.36;98997.47;5105575;28;20032;-66
2023/09/21 09:11:53;;;;;;;1.05;0.80;;;;;;;23.73;52.35;98977.84;5105242;28;20024;-66
2023/09/21 09:14:22;;;;;;;1.33;1.15;;;;;;;23.61;52.61;98985.03;5105517;28;20046;-66
2023/09/21 09:16:49;;;;;;;1.20;0.98;;;;;;;23.65;51.23;98990.94;5105229;28;20488;-66
2023/09/21 09:19:15;;;;;;;1.65;1.15;;;;;;;24.02;51.41;98982.44;5101108;28;20044;-66
2023/09/21 09:21:41;;;;;;;3.58;1.00;;;;;;;24.11;50.47;98991.38;5085219;28;20401;-66
2023/09/21 09:24:08;;;;;;;1.05;0.85;;;;;;;24.25;50.23;98995.47;5085238;28;20060;-67
2023/09/21 09:26:35;;;;;;;1.05;0.63;;;;;;;24.76;48.69;98992.72;5085110;28;20016;-66
2023/09/21 09:29:09;;;;;;;0.82;0.82;;;;;;;25.42;47.70;98976.16;5084235;28;20021;-64
2023/09/21 09:31:41;;;;;;;0.73;0.60;;;;;;;25.25;46.94;98969.78;5084859;28;20017;-66
2023/09/21 09:34:07;;;;;;;0.85;0.70;;;;;;;25.56;46.95;98976.69;5083840;28;20050;-66
2023/09/21 09:36:32;;;;;;;1.40;0.98;;;;;;;25.48;46.75;98980.06;5067015;28;20025;-65
2023/09/21 09:39:01;;;;;;;1.27;0.73;;;;;;;24.96;47.38;98982.13;5085072;28;20024;-66
2023/09/21 09:41:31;;;;;;;1.48;1.02;;;;;;;24.48;48.61;98991.72;5084919;28;20062;-67
2023/09/21 09:43:59;;;;;;;1.15;0.63;;;;;;;24.14;48.53;98992.91;5067080;28;20028;-66
2023/09/21 09:46:26;;;;;;;1.20;0.90;;;;;;;23.76;48.62;98985.53;5084587;28;20036;-64
2023/09/21 09:48:58;;;;;;;0.73;0.70;;;;;;;23.32;49.56;98990.16;5066963;28;20021;-65
2023/09/21 09:51:30;;;;;;;1.58;0.75;;;;;;;22.93;50.59;98972.22;5066841;28;20074;-64
2023/09/21 09:53:56;;;;;;;;;;;;;;;22.98;50.90;98988.56;5085179;28;20483;-65
2023/09/21 09:56:23;;;;;;;2.83;0.90;;;;;;;22.77;51.36;98978.78;5084688;28;19983;-65
2023/09/21 09:58:52;;;;;;;0.80;0.63;;;;;;;23.19;51.06;98980.63;5084899;28;20025;-66
2023/09/21 10:01:17;;;;;;;2.10;1.10;;;;;;;23.45;49.77;98982.88;5084729;28;20028;-65
2023/09/21 10:03:43;;;;;;;2.58;1.13;;;;;;;23.40;50.39;98974.50;5084733;28;20032;-66
2023/09/21 10:06:10;;;;;;;2.95;0.98;;;;;;;23.45;50.23;98974.94;5084731;28;20031;-66
2023/09/21 10:08:39;;;;;;;2.25;0.68;;;;;;;23.55;49.54;98982.94;5084732;28;20028;-66
2023/09/21 10:11:07;;;;;;;0.80;0.55;;;;;;;23.71;49.94;98992.19;5084553;28;20025;-66
2023/09/21 10:13:35;;;;;;;1.55;1.27;;;;;;;23.71;49.39;98982.44;5084683;28;20476;-66
2023/09/21 10:16:05;;;;;;;0.80;0.70;;;;;;;23.81;49.58;98992.22;5084524;28;20048;-66
2023/09/21 10:18:41;;;;;;;1.00;0.90;;;;;;;23.98;49.65;98982.81;5084771;28;20044;-65
2023/09/21 10:21:30;;;;;;;0.75;0.75;;;;;;;24.95;48.21;98971.66;5084348;28;20056;-65
2023/09/21 10:24:20;;;;;;;1.27;1.05;;;;;;;26.19;45.67;98977.78;5084665;28;20071;-66
2023/09/21 10:26:50;;;;;;;1.58;1.27;;;;;;;26.88;44.19;98978.28;5074729;28;20037;-65
2023/09/21 10:29:26;;;;;;;0.90;0.57;;;;;;;27.44;42.30;98964.69;5084539;28;20028;-66
2023/09/21 10:31:54;;;;;;;0.95;0.68;;;;;;;27.43;41.93;98965.69;5084229;28;20016;-66
2023/09/21 10:34:21;;;;;;;1.17;0.73;;;;;;;27.70;42.72;98980.66;5084631;28;20052;-65
2023/09/21 10:36:50;;;;;;;0.88;0.60;;;;;;;28.23;40.55;98954.84;5084311;28;20032;-65
2023/09/21 10:39:28;;;;;;;1.90;0.80;;;;;;;27.95;39.54;98967.44;5085445;28;20028;-65
2023/09/21 10:42:15;;;;;;;1.52;0.75;;;;;;;27.56;39.46;98973.25;5087915;28;20028;-65
2023/09/21 10:44:53;;;;;;;1.35;0.80;;;;;;;27.63;40.10;98962.78;5087795;28;20412;-65
2023/09/21 10:47:48;;;;;;;0.70;0.60;;;;;;;27.49;40.36;98961.56;5087664;28;20084;-65
2023/09/21 10:50:16;;;;;;;1.48;0.90;;;;;;;27.88;38.56;98979.75;5080533;28;20032;-65
2023/09/21 10:52:45;;;;;;;1.67;0.95;;;;;;;27.68;38.31;98969.34;5087795;28;20016;-65
2023/09/21 10:55:14;;;;;;;2.08;1.15;;;;;;;27.64;39.81;98967.09;5087902;28;20016;-65
2023/09/21 10:57:41;;;;;;;1.08;0.63;;;;;;;28.11;38.06;98964.97;5069506;28;20115;-65
2023/09/21 11:00:08;;;;;;;1.83;1.02;;;;;;;28.20;37.84;98977.34;5087667;28;20020;-65
2023/09/21 11:02:35;;;;;;;0.65;0.60;;;;;;;28.23;38.06;98970.84;5087492;28;20021;-65
2023/09/21 11:05:01;;;;;;;0.77;0.77;;;;;;;27.61;38.74;98970.94;5087634;28;20049;-66
2023/09/21 11:07:26;;;;;;;1.55;0.82;;;;;;;26.81;39.79;98972.72;5087548;28;20044;-66
2023/09/21 11:09:52;;;;;;;0.50;0.50;;;;;;;26.45;40.34;98969.13;5087480;28;20083;-65
2023/09/21 11:12:18;;;;;;;1.23;0.68;;;;;;;25.94;41.95;98987.31;5069140;28;20089;-64
2023/09/21 11:14:48;;;;;;;1.20;0.95;;;;;;;25.57;42.81;98965.06;5069272;28;20028;-65
2023/09/21 11:17:18;;;;;;;0.40;0.38;;;;;;;25.53;43.14;98974.31;5069222;28;20029;-65
2023/09/21 11:19:45;;;;;;;1.45;0.70;;;;;;;25.35;43.34;98978.56;5087141;28;20090;-65
2023/09/21 11:22:13;;;;;;;2.35;1.08;;;;;;;25.30;43.25;98980.81;5087257;28;20111;-65
2023/09/21 11:24:38;;;;;;;1.58;0.98;;;;;;;25.26;43.60;98976.75;5087230;28;20028;-65
2023/09/21 11:27:10;;;;;;;2.15;1.27;;;;;;;25.78;43.97;98977.31;5087203;28;20024;-66
2023/09/21 11:29:40;;;;;;;1.33;0.90;;;;;;;26.46;41.90;98968.13;5087174;28;20445;-65
2023/09/21 11:32:07;;;;;;;1.23;0.70;;;;;;;26.24;41.75;98964.91;5086829;28;20237;-66
2023/09/21 11:34:39;;;;;;;1.05;0.70;;;;;;;25.79;42.82;98955.06;5069051;28;20130;-65